St. George, Utah Weather observations

Data are for observation ending at time listed.
 Day   Time    Ave.   Ave.  Ave.  Vector   Max.   Stn.    Total    Solar   Ave.  
  of    of     Air    Rel.  Wind   Wind    Wind   Baro.  Precip.   Rad.    Soil  
Year   Day     Temp.  Hum.  Speed  Dir.    Gust   Pres.                    Temp. 
2016   (MST)    F      %     mph   deg.    mph     mb.     in.     W/m2     F   
------------------------------------------------------------------------------
 340    1:30   33.6    62    0.5   321      2.3   915.6    0.00       0    49.0
 340    1:40   33.6    62    0.3   306      2.0   915.7    0.00       0    48.9
 340    1:50   33.5    62    0.1   156      1.1   915.6    0.00       0    48.8
 340    2:00   33.3    64    0.6   215      1.7   915.5    0.00       0    48.8
 340    2:10   32.8    64    0.4   122      2.2   915.2    0.00       0    48.7
 340    2:20   32.7    64    0.1    59      1.2   915.2    0.00       0    48.6
 340    2:30   32.7    65    0.8   328      1.9   915.4    0.00       0    48.6
 340    2:40   32.4    66    1.4   340      2.5   915.4    0.00       0    48.5
 340    2:50   32.4    65    0.7   338      2.7   915.1    0.00       0    48.4
 340    3:00   32.0    66    0.3   236      1.8   914.9    0.00       0    48.4
 340    3:10   31.5    68    0.3    72      1.4   914.8    0.00       0    48.3
 340    3:20   31.7    68    0.0     0      0.0   915.0    0.00       0    48.2
 340    3:30   31.3    68    0.0     0      0.0   915.4    0.00       0    48.1
 340    3:40   31.2    69    0.0     0      0.0   914.8    0.00       0    48.1
 340    3:50   31.0    69    0.0     0      0.0   915.1    0.00       0    48.0
 340    4:00   31.0    69    0.5   348      1.9   914.9    0.00       0    48.0
 340    4:10   30.9    69    0.1   328      0.7   914.7    0.00       0    47.9
 340    4:20   30.8    70    0.2   238      1.6   914.9    0.00       0    47.8
 340    4:30   30.3    71    0.0     0      0.0   915.0    0.00       0    47.8
 340    4:40   30.1    72    0.1   238      0.8   915.3    0.00       0    47.7
 340    4:50   30.0    72    0.2   309      1.1   915.5    0.00       0    47.6
 340    5:00   29.9    73    0.0     0      0.0   915.0    0.00       0    47.6
 340    5:10   29.8    73    0.3   306      1.4   915.3    0.00       0    47.6
 340    5:20   29.6    73    0.0   199      0.8   915.7    0.00       0    47.5
 340    5:30   29.5    73    0.5   314      2.5   915.7    0.00       0    47.4
 340    5:40   29.3    73    0.1   340      1.2   915.8    0.00       0    47.3
 340    5:50   29.3    73    0.3   359      1.2   916.0    0.00       0    47.3
 340    6:00   29.7    73    0.4   320      1.2   916.0    0.00       0    47.2
 340    6:10   29.4    73    0.0     0      0.0   915.9    0.00       0    47.1
 340    6:20   29.0    74    0.0     0      0.0   916.0    0.00       0    47.1
 340    6:30   29.1    74    0.0   196      0.6   916.2    0.00       0    47.0
 340    6:40   28.9    75    0.0   336      1.2   916.5    0.00       0    47.0
 340    6:50   28.8    75    0.4   250      1.2   916.6    0.00       0    46.9
 340    7:00   28.6    76    0.3    11      1.5   916.6    0.00       0    46.8
 340    7:10   28.6    76    0.2   345      1.2   916.8    0.00       0    46.8
 340    7:20   28.5    76    0.0   217      0.7   916.9    0.00       0    46.7
 340    7:30   28.2    76    0.3   213      1.5   917.1    0.00       0    46.7
 340    7:40   27.9    76    0.0     0      0.0   917.2    0.00       2    46.6
 340    7:50   27.9    77    0.1   125      0.9   917.2    0.00       6    46.5
 340    8:00   28.2    76    0.3    18      1.5   917.3    0.00      23    46.5
 340    8:10   29.4    73    0.6   261      2.9   917.3    0.00      33    46.4
 340    8:20   29.7    73    0.1   188      0.9   917.2    0.00      68    46.3
 340    8:30   30.1    72    1.1   232      2.1   917.5    0.00     120    46.3
 340    8:40   31.1    70    1.7   223      3.0   917.5    0.00     151    46.2
 340    8:50   32.6    66    1.1   230      2.3   917.8    0.00     170    46.2
 340    9:00   34.7    62    0.7   212      1.9   917.7    0.00     211    46.2
 340    9:10   35.9    59    1.6   213      3.3   917.6    0.00     241    46.2
 340    9:20   35.8    59    1.4   184      3.4   917.7    0.00     267    46.2
 340    9:30   38.7    53    0.1   222      0.9   917.8    0.00     292    46.1
 340    9:40   39.2    51    1.0   204      3.0   917.9    0.00     314    46.1
 340    9:50   38.9    51    2.0   179      3.9   917.8    0.00     346    46.1
 340   10:00   39.1    51    1.4   184      2.8   918.0    0.00     364    46.1
 340   10:10   40.8    48    0.8   196      3.3   918.0    0.00     386    46.1
 340   10:20   41.0    47    1.4   176      3.3   917.9    0.00     420    46.2
 340   10:30   41.5    46    2.1   184      3.9   918.0    0.00     438    46.2
 340   10:40   41.9    45    1.5   175      3.4   918.0    0.00     457    46.3
 340   10:50   42.7    42    1.6   196      3.3   917.9    0.00     445    46.3
 340   11:00   43.6    40    1.3   153      3.2   917.8    0.00     378    46.4
 340   11:10   43.8    39    1.3   132      4.0   917.7    0.00     107    46.5
 340   11:20   44.2    38    0.9   130      2.9   917.7    0.00     392    46.5
 340   11:30   46.3    34    1.1   207      3.1   917.4    0.00     508    46.6
 340   11:40   47.0    33    1.4   157      3.7   917.3    0.00     375    46.7
 340   11:50   48.1    32    1.2   188      2.8   917.1    0.00     273    46.8
 340   12:00   48.7    32    1.1   152      3.6   916.9    0.00     504    46.9
 340   12:10   49.3    31    1.7   187      3.6   916.8    0.00     461    47.1
 340   12:20   49.6    31    2.2   188      4.2   916.6    0.00     571    47.2
 340   12:30   49.5    30    1.8   173      4.2   916.5    0.00     581    47.4
 340   12:40   50.2    30    2.8   187      6.5   916.4    0.00     535    47.6
 340   12:50   50.9    30    1.8   132      3.3   916.3    0.00     574    47.7
 340   13:00   51.7    28    2.1   151      5.4   916.1    0.00     488    47.9
 340   13:10   52.5    28    2.1   152      4.6   915.9    0.00     536    48.1
 340   13:20   53.1    27    2.0   147      5.8   915.8    0.00     560    48.3
 340   13:30   53.3    26    2.0   150      4.3   915.8    0.00     537    48.5
 340   13:40   54.7    26    1.7   141      4.6   915.4    0.00     574    48.6
 340   13:50   55.1    24    2.3   170      5.3   915.3    0.00     537    48.8
 340   14:00   54.7    24    1.7   129      3.9   915.1    0.00     509    49.0
 340   14:10   55.9    23    1.3   241      3.3   914.9    0.00     503    49.2
 340   14:20   56.2    22    1.7   167      4.9   914.5    0.00     514    49.4
 340   14:30   56.2    22    1.6   182      5.3   914.4    0.00     479    49.6
 340   14:40   56.3    22    1.8   181      5.0   914.3    0.00     442    49.8
 340   14:50   56.6    21    2.7   193      6.9   914.2    0.00     381    50.0
 340   15:00   56.6    22    2.3   222      4.7   913.3    0.00     401    50.2
 340   15:10   57.3    21    1.6   194      4.7   913.1    0.00     370    50.3
 340   15:20   56.5    21    2.2   218      4.3   912.7    0.00     226    50.5
 340   15:30   57.2    21    1.1   201      3.7   912.8    0.00     226    50.7
 340   15:40   56.4    21    0.9   155      2.6   912.9    0.00     179    50.9
 340   15:50   56.5    22    1.5   213      2.8   912.9    0.00     215    51.0
 340   16:00   56.8    21    0.7   211      3.1   912.9    0.00     165    51.2
 340   16:10   56.4    22    0.7   246      1.8   912.9    0.00     106    51.3
 340   16:20   55.7    23    0.8   195      2.7   913.0    0.00      74    51.4
 340   16:30   54.8    24    1.4   201      2.6   913.0    0.00      51    51.5
 340   16:40   54.4    25    0.9   200      2.3   913.0    0.00      41    51.6
 340   16:50   53.8    26    0.2   201      1.4   913.0    0.00      30    51.7
 340   17:00   53.3    26    0.4   148      1.6   913.0    0.00      19    51.7
 340   17:10   52.9    27    0.1   186      1.2   913.0    0.00      10    51.8
 340   17:20   52.3    29    0.0   330      1.5   912.9    0.00       4    51.8
 340   17:30   51.8    30    0.0   237      0.8   912.9    0.00       3    51.9
 340   17:40   51.7    30    0.0     0      0.0   913.0    0.00       0    51.9
 340   17:50   51.1    31    0.0   228      0.7   913.0    0.00       0    51.9
 340   18:00   50.7    32    0.0   206      0.4   913.0    0.00       0    51.9
 340   18:10   50.3    32    0.0   332      0.4   913.0    0.00       0    51.9
 340   18:20   50.4    32    0.1   333      0.7   913.0    0.00       0    51.9
 340   18:30   50.1    32    0.3   337      1.3   913.1    0.00       0    51.9
 340   18:40   49.9    32    0.0     0      0.0   913.2    0.00       0    51.8
 340   18:50   49.7    33    0.9   356      1.6   913.1    0.00       0    51.8
 340   19:00   49.7    33    0.2    19      1.1   913.1    0.00       0    51.8
 340   19:10   49.5    34    0.8   208      3.8   913.2    0.00       0    51.7
 340   19:20   48.5    36    0.3   249      1.1   913.3    0.00       0    51.7
 340   19:30   47.7    37    0.0     0      0.0   913.3    0.00       0    51.7
 340   19:40   47.4    38    0.0     0      0.0   913.3    0.00       0    51.6
 340   19:50   47.3    39    0.1   207      0.9   913.3    0.00       0    51.6
 340   20:00   47.3    39    0.2   226      1.5   913.3    0.00       0    51.6
 340   20:10   46.7    40    0.0   233      0.5   913.4    0.00       0    51.5
 340   20:20   46.5    41    0.5   339      1.5   913.4    0.00       0    51.5
 340   20:30   46.3    41    0.0   323      0.7   913.3    0.00       0    51.4
 340   20:40   45.9    42    0.3   325      1.4   913.4    0.00       0    51.4
 340   20:50   45.7    42    0.1   312      0.8   913.5    0.00       0    51.3
 340   21:00   45.6    42    0.0     0      0.0   913.6    0.00       0    51.3
 340   21:10   45.1    43    0.0   351      0.5   913.7    0.00       0    51.2
 340   21:20   45.2    43    0.1   348      0.8   913.6    0.00       0    51.2
 340   21:30   44.9    44    0.4    26      2.3   913.5    0.00       0    51.1
 340   21:40   44.6    44    0.0    73      0.7   913.5    0.00       0    51.1
 340   21:50   44.3    45    0.0   255      0.9   913.5    0.00       0    51.1
 340   22:00   43.7    47    0.8   289      2.3   913.7    0.00       0    51.0
 340   22:10   43.1    47    0.6   348      1.9   913.7    0.00       0    51.0
 340   22:20   43.0    47    0.2   352      1.2   913.6    0.00       0    50.9
 340   22:30   43.3    46    0.5    50      2.3   913.7    0.00       0    50.9
 340   22:40   44.3    42    0.6    28      1.9   913.5    0.00       0    50.8
 340   22:50   45.6    38    0.8    28      2.6   913.5    0.00       0    50.8
 340   23:00   45.8    38    0.9     3      2.6   913.5    0.00       0    50.7
 340   23:10   43.4    47    1.7   196      4.2   913.6    0.00       0    50.6
 340   23:20   42.0    52    0.4   231      1.8   913.6    0.00       0    50.6
 340   23:30   41.3    53    0.1   305      1.2   913.6    0.00       0    50.6
 340   23:40   41.1    53    1.0   331      2.0   913.6    0.00       0    50.5
 340   23:50   41.2    53    0.7   322      1.8   913.7    0.00       0    50.5
 341    0:00   41.0    53    1.4   339      2.6   913.8    0.00       0    50.4
 341    0:10   41.1    51    1.7   349      2.6   913.7    0.00       0    50.3
 341    0:20   41.1    50    0.2   298      1.2   913.5    0.00       0    50.3
 341    0:30   40.7    49    0.1   224      1.1   913.3    0.00       0    50.2
 341    0:40   40.5    49    0.8   350      2.6   913.2    0.00       0    50.2
 341    0:50   40.9    46    0.8   352      1.8   913.2    0.00       0    50.1
 341    1:00   41.2    44    0.0    74      0.7   913.2    0.00       0    50.1
 341    1:10   41.0    46    0.0     0      0.0   913.1    0.00       0    50.0
 341    1:20   39.9    49    0.3   247      1.4   912.9    0.00       0    50.0

Return to St. George, Utah graphs page.


Western Regional Climate Center,wrcc@dri.edu